Main page
METAR-TAF:

METAR-TAF

Airports :

São Pedro da Aldeia, Rio de Janeiro, Brazil

latitude: 22-49S, longitude: 042-06W, elevation: 10 m

Current weather observation

The report was made 1 hour and 58 minutes ago, at 19:00 UTC
Wind 8 kt from the East, varying between East/Northeast and Southeast
Temperature 27°C
Humidity 70%
Pressure 1016 hPa
Visibility 10 km or more
no clouds below 1500 m and no cumulonimbus

METAR: SBES 281900Z 10008KT 070V130 CAVOK 27/21 Q1016

Time: 17:58 (20:58 UTC)


TAF: missing

Weather observations and forecasts of more than 4000 airports (METAR and TAF reports).

The available stations are represented by yellow and red dots on the map.

Hover mouse over dot to see the name of the station.

Then click to see weather observations and forecasts.

To change the map : click on the green buttons with a black cross to zoom in, on the green button with a dash to zoom out, or on the green arrows for adjacent maps.


METAR-TAF: